webcam facing south webcam facing south


webcam city Arachova webcam city Arachova


webcam city Arachova webcam city Arachova


Thunder radar blitzortung!


Rain radar rain snow radar


Visit our other sites:

Hotel Skamnos

Arachova Weather Station

Skamnos Weather Station

Skamnos Weather2

Arachova Weather2

WU Skamnos

WU Arachova


Other Weather Sites:

Parnassos Snow Forecast

Parnassos Snow Report

Kelaria 1950m

Kelaria 2240m

Fterolaka 2080m



There are multiple Weather-warnings   Click here for more information

Nearby METAR Reports

  
1089 - Arachova Meteo, Greece
Distance from station: N 1km
Updated: 26-06-2017 16:49
Overcast
Overcast  
 Wind from calm
Wind: Calm
Temperature:  26°C
Dew Point:  16°C
Humidity:  54%
Barometer:  1009 hPa
Clouds:  Overcast
Visibility:  10 km
Cloud details:  Overcast 1158 m
2017/06/26 13:49 1089 261349Z 00000KT 9999 OVC038 26/16 Q1009
1155 - Arachova2, Greece
Distance from station: N 1km
Updated: 26-06-2017 16:49
Overcast
Overcast  
 Wind from NE
Wind: NE 2 km/h
Temperature:  24°C
Dew Point:  17°C
Humidity:  65%
Barometer:  1011 hPa
Clouds:  Overcast
Visibility:  9 km
Cloud details:  Overcast 823 m
2017/06/26 13:49 1155 261349Z 04501KT 9000 OVC027 24/17 Q1011
1509 - Skamnos Parnassos 1250m, Greece
Distance from station: N 10km
Updated: 11-06-2017 23:35
NOT Current

  
 
Visibility:  0 mile
2017/06/11 20:35 1509 112035Z 0004KT 8000 -RA OVC010 10/09 Q1025
1250 - Parnassos Kelaria 1950m, Greece
Distance from station: NNE 10km
Updated: 26-06-2017 16:49
Overcast
Overcast  
 Wind from W
Wind: W 2 km/h
Temperature:  18°C
Dew Point:  13°C
Humidity:  73%
Barometer:  1013 hPa
Clouds:  Overcast
Visibility:  8 km
Cloud details:  Overcast 610 m
2017/06/26 13:49 1250 261349Z 27001KT 8000 OVC020 18/13 Q1013
1126 - Parnassos Fterolaka 2080m, Greece
Distance from station: NNE 10km
Updated: 21-03-2015 01:04
NOT Current
Few Clouds
Few Clouds  
 Wind from calm
Wind: Calm
Temperature:  -11°C
Dew Point:  -11°C
Humidity:  100%
Barometer:  1019 hPa
Clouds:  Few Clouds
Visibility:  6 km
Cloud details:  Few Clouds 305 m
2015/03/20 23:04 1126 202304Z 00000KT 6000 FEW010 M11/M11 Q1019
1382 - Parnassos Helcules 2240m, Greece
Distance from station: NNE 10km
Updated: 20-04-2015 13:20
NOT Current
Fog
Fog  
 Wind from SW
Wind: SW 7 km/h
Temperature:  1°C
Wind Chill:  -2°C
Dew Point:  1°C
Humidity:  100%
Barometer:  1009 hPa
Summary:  Fog
Visibility:  5 km
2015/04/20 10:20 1382 201020Z 22504KT 5000 FG 01/01 Q1009
1219 - Anrikyra, Greece
Distance from station: S 30km
Updated: 26-06-2017 16:49
Overcast
Overcast  
 Wind from W
Wind: W 6 km/h
Temperature:  30°C
Heat Index:  32°C
Dew Point:  20°C
Humidity:  55%
Barometer:  1009 hPa
Clouds:  Overcast
Visibility:  10 km
Cloud details:  Overcast 1250 m
2017/06/26 13:49 1219 261349Z 27003KT 9999 OVC041 30/20 Q1009
1015 - Galaxeidi, Greece
Distance from station: S 30km
Updated: 26-06-2017 16:49
Overcast
Overcast  
 Wind from S
Wind: S 6 km/h
Temperature:  30°C
Heat Index:  33°C
Dew Point:  21°C
Humidity:  59%
Barometer:  1019 hPa
Clouds:  Overcast
Visibility:  9 km
Cloud details:  Overcast 1128 m
2017/06/26 13:49 1015 261349Z 18003KT 9000 OVC037 30/21 Q1019
1088 - Amfikleia, Greece
Distance from station: N 20km
Updated: 16-06-2017 17:34
NOT Current
Thunderstorm, Heavy Rain, Overcast
Thunderstorm, Heavy Rain, Overcast  
 Wind from calm
Wind: Calm
Temperature:  21°C
Dew Point:  19°C
Humidity:  88%
Barometer:  1014 hPa
Summary:  Thunderstorm, Heavy Rain
Clouds:  Overcast
Visibility:  7 km
Cloud details:  Overcast 1829 m
2017/06/16 14:34 1088 161434Z 00000KT 7000 TS +RA OVC060 21/19 Q1014
1337 - Polydroso, Greece
Distance from station: N 20km
Updated: 26-06-2017 16:49
Mostly Cloudy
Mostly Cloudy  
 Wind from calm
Wind: Calm
Temperature:  30°C
Heat Index:  33°C
Dew Point:  22°C
Humidity:  62%
Barometer:  1009 hPa
Clouds:  Mostly Cloudy
Visibility:  9 km
Cloud details:  Mostly Cloudy 975 m
2017/06/26 13:49 1337 261349Z 00000KT 9000 BKN032 30/22 Q1009

Script developed by  Saratoga-weather.org Adapted for the template by  Weerstation Leuven